createdAt,value
2017-02-19T00:00:03.095Z,-3.1
2017-02-19T00:00:21.754Z,-3.1
2017-02-19T00:00:40.418Z,-3.1
2017-02-19T00:00:59.091Z,-3.2
2017-02-19T00:01:17.764Z,-3.2
2017-02-19T00:01:36.421Z,-3.2
2017-02-19T00:01:55.091Z,-3.2
2017-02-19T00:02:13.748Z,-3.2
2017-02-19T00:02:32.415Z,-3.2
2017-02-19T00:02:51.082Z,-3.2
2017-02-19T00:03:09.737Z,-3.2
2017-02-19T00:03:28.397Z,-3.2
2017-02-19T00:03:47.068Z,-3.2
2017-02-19T00:04:05.729Z,-3.2
2017-02-19T00:04:24.412Z,-3.1
2017-02-19T00:04:43.073Z,-3.1
2017-02-19T00:05:01.736Z,-3.1
2017-02-19T00:05:20.412Z,-3.1
2017-02-19T00:05:39.083Z,-3.1
2017-02-19T00:05:57.754Z,-3.1
2017-02-19T00:06:16.416Z,-3.1
2017-02-19T00:06:35.094Z,-3.1
2017-02-19T00:06:53.756Z,-3.1
2017-02-19T00:07:12.418Z,-3.1
2017-02-19T00:07:31.082Z,-3.1
2017-02-19T00:07:49.742Z,-3.1
2017-02-19T00:08:08.407Z,-3.1
2017-02-19T00:08:27.066Z,-3.1
2017-02-19T00:08:45.728Z,-3.2
2017-02-19T00:09:04.417Z,-3.2
2017-02-19T00:09:23.081Z,-3.2
2017-02-19T00:09:41.745Z,-3.2
2017-02-19T00:10:00.412Z,-3.2
2017-02-19T00:10:19.083Z,-3.2
2017-02-19T00:10:37.750Z,-3.2
2017-02-19T00:10:56.418Z,-3.1
2017-02-19T00:11:15.076Z,-3.2
2017-02-19T00:11:33.761Z,-3.2
2017-02-19T00:11:52.426Z,-3.2
2017-02-19T00:12:11.083Z,-3.2
2017-02-19T00:12:29.747Z,-3.2
2017-02-19T00:12:48.409Z,-3.2
2017-02-19T00:13:07.069Z,-3.2
2017-02-19T00:13:25.728Z,-3.3
2017-02-19T00:13:44.409Z,-3.3
2017-02-19T00:14:03.072Z,-3.3
2017-02-19T00:14:21.735Z,-3.3
2017-02-19T00:14:40.395Z,-3.3
2017-02-19T00:14:59.069Z,-3.3
2017-02-19T00:15:17.750Z,-3.3
2017-02-19T00:15:36.420Z,-3.3
2017-02-19T00:15:55.089Z,-3.4
2017-02-19T00:16:13.754Z,-3.4
2017-02-19T00:16:32.412Z,-3.4
2017-02-19T00:16:51.084Z,-3.4
2017-02-19T00:17:09.766Z,-3.4
2017-02-19T00:17:28.424Z,-3.3
2017-02-19T00:17:47.084Z,-3.3
2017-02-19T00:18:05.744Z,-3.3
2017-02-19T00:18:24.435Z,-3.3
2017-02-19T00:18:43.107Z,-3.3
2017-02-19T00:19:01.769Z,-3.3
2017-02-19T00:19:20.458Z,-3.4
2017-02-19T00:19:39.137Z,-3.4
2017-02-19T00:19:57.818Z,-3.3
2017-02-19T00:20:16.482Z,-3.4
2017-02-19T00:20:35.145Z,-3.3
2017-02-19T00:20:53.806Z,-3.3
2017-02-19T00:21:12.460Z,-3.3
2017-02-19T00:21:31.133Z,-3.3
2017-02-19T00:21:49.796Z,-3.3
2017-02-19T00:22:08.480Z,-3.3
2017-02-19T00:22:27.144Z,-3.2
2017-02-19T00:22:45.806Z,-3.3
2017-02-19T00:23:04.473Z,-3.3
2017-02-19T00:23:23.143Z,-3.3
2017-02-19T00:23:41.799Z,-3.3
2017-02-19T00:24:00.461Z,-3.3
2017-02-19T00:24:19.145Z,-3.3
2017-02-19T00:24:37.801Z,-3.3
2017-02-19T00:24:56.463Z,-3.3
2017-02-19T00:25:15.124Z,-3.3
2017-02-19T00:25:33.782Z,-3.2
2017-02-19T00:25:52.443Z,-3.3
2017-02-19T00:26:11.106Z,-3.2
2017-02-19T00:26:29.768Z,-3.2
2017-02-19T00:26:48.448Z,-3.2
2017-02-19T00:27:07.115Z,-3.2
2017-02-19T00:27:25.780Z,-3.2
2017-02-19T00:27:44.469Z,-3.2
2017-02-19T00:28:03.137Z,-3.2
2017-02-19T00:28:21.792Z,-3.2
2017-02-19T00:28:40.459Z,-3.2
2017-02-19T00:28:59.137Z,-3.2
2017-02-19T00:29:17.801Z,-3.2
2017-02-19T00:29:36.460Z,-3.2
2017-02-19T00:29:55.126Z,-3.2
2017-02-19T00:30:13.783Z,-3.2
2017-02-19T00:30:32.438Z,-3.2
2017-02-19T00:30:51.101Z,-3.2
2017-02-19T00:31:09.760Z,-3.2
2017-02-19T00:31:28.422Z,-3.2
2017-02-19T00:31:47.096Z,-3.2
2017-02-19T00:32:05.748Z,-3.2
2017-02-19T00:32:24.430Z,-3.1
2017-02-19T00:32:43.087Z,-3.1
2017-02-19T00:33:01.761Z,-3.1
2017-02-19T00:33:20.426Z,-3.1
2017-02-19T00:33:39.104Z,-3.1
2017-02-19T00:33:57.762Z,-3.1
2017-02-19T00:34:16.431Z,-3.2
2017-02-19T00:34:35.103Z,-3.1
2017-02-19T00:34:53.760Z,-3.1
2017-02-19T00:35:12.414Z,-3.2
2017-02-19T00:35:31.071Z,-3.2
2017-02-19T00:35:49.743Z,-3.2
2017-02-19T00:36:08.403Z,-3.2
2017-02-19T00:36:27.063Z,-3.2
2017-02-19T00:36:45.725Z,-3.2
2017-02-19T00:37:04.420Z,-3.2
2017-02-19T00:37:23.096Z,-3.2
2017-02-19T00:37:41.763Z,-3.2
2017-02-19T00:38:00.432Z,-3.2
2017-02-19T00:38:19.107Z,-3.2
2017-02-19T00:38:37.767Z,-3.2
2017-02-19T00:38:56.431Z,-3.3
2017-02-19T00:39:15.104Z,-3.2
2017-02-19T00:39:33.765Z,-3.3
2017-02-19T00:39:52.442Z,-3.3
2017-02-19T00:40:11.100Z,-3.3
2017-02-19T00:40:29.761Z,-3.3
2017-02-19T00:40:48.418Z,-3.3
2017-02-19T00:41:07.098Z,-3.3
2017-02-19T00:41:25.763Z,-3.3
2017-02-19T00:41:44.467Z,-3.3
2017-02-19T00:42:03.135Z,-3.3
2017-02-19T00:42:21.795Z,-3.3
2017-02-19T00:42:40.464Z,-3.3
2017-02-19T00:42:59.151Z,-3.4
2017-02-19T00:43:17.825Z,-3.4
2017-02-19T00:43:36.492Z,-3.4
2017-02-19T00:43:55.151Z,-3.4
2017-02-19T00:44:13.810Z,-3.4
2017-02-19T00:44:32.467Z,-3.3
2017-02-19T00:44:51.125Z,-3.3
2017-02-19T00:45:09.791Z,-3.3
2017-02-19T00:45:28.448Z,-3.3
2017-02-19T00:45:47.120Z,-3.3
2017-02-19T00:46:05.786Z,-3.4
2017-02-19T00:46:24.462Z,-3.4
2017-02-19T00:46:43.120Z,-3.4
2017-02-19T00:47:01.789Z,-3.4
2017-02-19T00:47:20.454Z,-3.4
2017-02-19T00:47:39.132Z,-3.5
2017-02-19T00:47:57.794Z,-3.4
2017-02-19T00:48:16.461Z,-3.5
2017-02-19T00:48:35.143Z,-3.5
2017-02-19T00:48:53.804Z,-3.5
2017-02-19T00:49:12.463Z,-3.4
2017-02-19T00:49:31.131Z,-3.4
2017-02-19T00:49:49.789Z,-3.4
2017-02-19T00:50:08.453Z,-3.4
2017-02-19T00:50:27.108Z,-3.4
2017-02-19T00:50:45.769Z,-3.4
2017-02-19T00:51:04.457Z,-3.4
2017-02-19T00:51:23.119Z,-3.4
2017-02-19T00:51:41.785Z,-3.4
2017-02-19T00:52:00.444Z,-3.4
2017-02-19T00:52:19.130Z,-3.4
2017-02-19T00:52:37.791Z,-3.4
2017-02-19T00:52:56.449Z,-3.4
2017-02-19T00:53:15.133Z,-3.3
2017-02-19T00:53:33.805Z,-3.3
2017-02-19T00:53:52.473Z,-3.3
2017-02-19T00:54:11.135Z,-3.3
2017-02-19T00:54:29.791Z,-3.3
2017-02-19T00:54:48.459Z,-3.3
2017-02-19T00:55:07.120Z,-3.3
2017-02-19T00:55:25.785Z,-3.3
2017-02-19T00:55:44.456Z,-3.3
2017-02-19T00:56:03.116Z,-3.2
2017-02-19T00:56:21.778Z,-3.2
2017-02-19T00:56:40.447Z,-3.2
2017-02-19T00:56:59.123Z,-3.2
2017-02-19T00:57:17.815Z,-3.2
2017-02-19T00:57:36.475Z,-3.2
2017-02-19T00:57:55.141Z,-3.3
2017-02-19T00:58:13.801Z,-3.3
2017-02-19T00:58:32.462Z,-3.3
2017-02-19T00:58:51.136Z,-3.3
2017-02-19T00:59:09.801Z,-3.3
2017-02-19T00:59:28.463Z,-3.3
2017-02-19T00:59:47.121Z,-3.3
2017-02-19T01:00:05.780Z,-3.3
2017-02-19T01:00:24.453Z,-3.3
2017-02-19T01:00:43.119Z,-3.3
2017-02-19T01:01:01.781Z,-3.3
2017-02-19T01:01:20.440Z,-3.3
2017-02-19T01:01:39.125Z,-3.3
2017-02-19T01:01:57.791Z,-3.3
2017-02-19T01:02:16.452Z,-3.3
2017-02-19T01:02:35.124Z,-3.3
2017-02-19T01:02:53.781Z,-3.3
2017-02-19T01:03:12.445Z,-3.3
2017-02-19T01:03:31.102Z,-3.3
2017-02-19T01:03:49.762Z,-3.4
2017-02-19T01:04:08.427Z,-3.4
2017-02-19T01:04:27.106Z,-3.4
2017-02-19T01:04:45.774Z,-3.4
2017-02-19T01:05:04.454Z,-3.3
2017-02-19T01:05:23.121Z,-3.3
2017-02-19T01:05:41.780Z,-3.3
2017-02-19T01:06:00.438Z,-3.3
2017-02-19T01:06:19.113Z,-3.3
2017-02-19T01:06:37.773Z,-3.3
2017-02-19T01:06:56.435Z,-3.3
2017-02-19T01:07:15.099Z,-3.3
2017-02-19T01:07:33.755Z,-3.3
2017-02-19T01:07:52.409Z,-3.3
2017-02-19T01:08:11.075Z,-3.2
2017-02-19T01:08:29.738Z,-3.2
2017-02-19T01:08:48.397Z,-3.2
2017-02-19T01:09:07.065Z,-3.2
2017-02-19T01:09:25.733Z,-3.2
2017-02-19T01:09:44.442Z,-3.2
2017-02-19T01:10:03.098Z,-3.2
2017-02-19T01:10:21.760Z,-3.2
2017-02-19T01:10:40.420Z,-3.2
2017-02-19T01:10:59.091Z,-3.2
2017-02-19T01:11:17.757Z,-3.2
2017-02-19T01:11:36.443Z,-3.3
2017-02-19T01:11:55.107Z,-3.3
2017-02-19T01:12:13.768Z,-3.3
2017-02-19T01:12:32.441Z,-3.3
2017-02-19T01:12:51.100Z,-3.3
2017-02-19T01:13:09.760Z,-3.3
2017-02-19T01:13:28.423Z,-3.3
2017-02-19T01:13:47.093Z,-3.4
2017-02-19T01:14:05.765Z,-3.4
2017-02-19T01:14:24.439Z,-3.4
2017-02-19T01:14:43.122Z,-3.4
2017-02-19T01:15:01.801Z,-3.4
2017-02-19T01:15:20.467Z,-3.5
2017-02-19T01:15:39.147Z,-3.5
2017-02-19T01:15:57.808Z,-3.5
2017-02-19T01:16:16.479Z,-3.5
2017-02-19T01:16:35.141Z,-3.5
2017-02-19T01:16:53.804Z,-3.6
2017-02-19T01:17:12.465Z,-3.6
2017-02-19T01:17:31.132Z,-3.6
2017-02-19T01:17:49.793Z,-3.6
2017-02-19T01:18:08.451Z,-3.6
2017-02-19T01:18:27.114Z,-3.6
2017-02-19T01:18:45.787Z,-3.6
2017-02-19T01:19:04.455Z,-3.5
2017-02-19T01:19:23.116Z,-3.5
2017-02-19T01:19:41.778Z,-3.5
2017-02-19T01:20:00.439Z,-3.4
2017-02-19T01:20:19.127Z,-3.4
2017-02-19T01:20:37.811Z,-3.4
2017-02-19T01:20:56.478Z,-3.4
2017-02-19T01:21:15.139Z,-3.4
2017-02-19T01:21:33.822Z,-3.4
2017-02-19T01:21:52.480Z,-3.4
2017-02-19T01:22:11.136Z,-3.4
2017-02-19T01:22:29.805Z,-3.4
2017-02-19T01:22:48.467Z,-3.4
2017-02-19T01:23:07.142Z,-3.4
2017-02-19T01:23:25.803Z,-3.4
2017-02-19T01:23:44.470Z,-3.4
2017-02-19T01:24:03.125Z,-3.4
2017-02-19T01:24:21.787Z,-3.3
2017-02-19T01:24:40.451Z,-3.3
2017-02-19T01:24:59.144Z,-3.3
2017-02-19T01:25:17.802Z,-3.3
2017-02-19T01:25:36.465Z,-3.3
2017-02-19T01:25:55.130Z,-3.3
2017-02-19T01:26:13.785Z,-3.3
2017-02-19T01:26:32.442Z,-3.3
2017-02-19T01:26:51.099Z,-3.3
2017-02-19T01:27:09.768Z,-3.3
2017-02-19T01:27:28.426Z,-3.3
2017-02-19T01:27:47.108Z,-3.3
2017-02-19T01:28:05.764Z,-3.3
2017-02-19T01:28:24.448Z,-3.3
2017-02-19T01:28:43.117Z,-3.3
2017-02-19T01:29:01.782Z,-3.3
2017-02-19T01:29:20.446Z,-3.3
2017-02-19T01:29:39.118Z,-3.3
2017-02-19T01:29:57.795Z,-3.3
2017-02-19T01:30:16.455Z,-3.3
2017-02-19T01:30:35.116Z,-3.3
2017-02-19T01:30:53.797Z,-3.4
2017-02-19T01:31:12.457Z,-3.4
2017-02-19T01:31:31.121Z,-3.4
2017-02-19T01:31:49.786Z,-3.3
2017-02-19T01:32:08.447Z,-3.3
2017-02-19T01:32:27.118Z,-3.3
2017-02-19T01:32:45.778Z,-3.3
2017-02-19T01:33:04.466Z,-3.2
2017-02-19T01:33:23.122Z,-3.2
2017-02-19T01:33:41.781Z,-3.2
2017-02-19T01:34:00.446Z,-3.2
2017-02-19T01:34:19.126Z,-3.2
2017-02-19T01:34:37.787Z,-3.2
2017-02-19T01:34:56.443Z,-3.2
2017-02-19T01:35:15.097Z,-3.2
2017-02-19T01:35:33.758Z,-3.2
2017-02-19T01:35:52.430Z,-3.2
2017-02-19T01:36:11.097Z,-3.3
2017-02-19T01:36:29.755Z,-3.3
2017-02-19T01:36:48.412Z,-3.3
2017-02-19T01:37:07.071Z,-3.3
2017-02-19T01:37:25.728Z,-3.3
2017-02-19T01:37:44.409Z,-3.3
2017-02-19T01:38:03.067Z,-3.3
2017-02-19T01:38:21.739Z,-3.3
2017-02-19T01:38:40.395Z,-3.3
2017-02-19T01:38:59.068Z,-3.3
2017-02-19T01:39:17.741Z,-3.3
2017-02-19T01:39:36.394Z,-3.3
2017-02-19T01:39:55.050Z,-3.3
2017-02-19T01:40:13.708Z,-3.3
2017-02-19T01:40:32.368Z,-3.3
2017-02-19T01:40:51.029Z,-3.3
2017-02-19T01:41:09.699Z,-3.3
2017-02-19T01:41:28.382Z,-3.3
2017-02-19T01:41:47.045Z,-3.3
2017-02-19T01:42:05.708Z,-3.3
2017-02-19T01:42:24.393Z,-3.3
2017-02-19T01:42:43.056Z,-3.3
2017-02-19T01:43:01.735Z,-3.3
2017-02-19T01:43:20.395Z,-3.3
2017-02-19T01:43:39.066Z,-3.4
2017-02-19T01:43:57.746Z,-3.4
2017-02-19T01:44:16.413Z,-3.4
2017-02-19T01:44:35.078Z,-3.4
2017-02-19T01:44:53.730Z,-3.4
2017-02-19T01:45:12.393Z,-3.4
2017-02-19T01:45:31.049Z,-3.5
2017-02-19T01:45:49.711Z,-3.5
2017-02-19T01:46:08.369Z,-3.4
2017-02-19T01:46:27.040Z,-3.5
2017-02-19T01:46:45.710Z,-3.5
2017-02-19T01:47:04.394Z,-3.5
2017-02-19T01:47:23.051Z,-3.5
2017-02-19T01:47:41.722Z,-3.5
2017-02-19T01:48:00.381Z,-3.5
2017-02-19T01:48:19.048Z,-3.5
2017-02-19T01:48:37.735Z,-3.5
2017-02-19T01:48:56.394Z,-3.5
2017-02-19T01:49:15.053Z,-3.4
2017-02-19T01:49:33.709Z,-3.5
2017-02-19T01:49:52.369Z,-3.4
2017-02-19T01:50:11.033Z,-3.4
2017-02-19T01:50:29.713Z,-3.4
2017-02-19T01:50:48.382Z,-3.4
2017-02-19T01:51:07.045Z,-3.4
2017-02-19T01:51:25.705Z,-3.4
2017-02-19T01:51:44.391Z,-3.4
2017-02-19T01:52:03.069Z,-3.4
2017-02-19T01:52:21.733Z,-3.4
2017-02-19T01:52:40.392Z,-3.4
2017-02-19T01:52:59.075Z,-3.4
2017-02-19T01:53:17.746Z,-3.5
2017-02-19T01:53:36.402Z,-3.5
2017-02-19T01:53:55.066Z,-3.5
2017-02-19T01:54:13.723Z,-3.5
2017-02-19T01:54:32.376Z,-3.5
2017-02-19T01:54:51.033Z,-3.4
2017-02-19T01:55:09.724Z,-3.4
2017-02-19T01:55:28.398Z,-3.4
2017-02-19T01:55:47.075Z,-3.4
2017-02-19T01:56:05.751Z,-3.4
2017-02-19T01:56:24.433Z,-3.4
2017-02-19T01:56:43.092Z,-3.4
2017-02-19T01:57:01.755Z,-3.4
2017-02-19T01:57:20.432Z,-3.4
2017-02-19T01:57:39.099Z,-3.4
2017-02-19T01:57:57.757Z,-3.5
2017-02-19T01:58:16.433Z,-3.5
2017-02-19T01:58:35.099Z,-3.5
2017-02-19T01:58:53.766Z,-3.5
2017-02-19T01:59:12.430Z,-3.5
2017-02-19T01:59:31.095Z,-3.5
2017-02-19T01:59:49.761Z,-3.5
2017-02-19T02:00:08.417Z,-3.6
2017-02-19T02:00:27.090Z,-3.5
2017-02-19T02:00:45.751Z,-3.6
2017-02-19T02:01:04.432Z,-3.6
2017-02-19T02:01:23.092Z,-3.6
2017-02-19T02:01:41.758Z,-3.6
2017-02-19T02:02:00.443Z,-3.6
2017-02-19T02:02:19.134Z,-3.6
2017-02-19T02:02:37.829Z,-3.6
2017-02-19T02:02:56.504Z,-3.6
2017-02-19T02:03:15.168Z,-3.6
2017-02-19T02:03:33.825Z,-3.6
2017-02-19T02:03:52.489Z,-3.6
2017-02-19T02:04:11.148Z,-3.5
2017-02-19T02:04:29.807Z,-3.6
2017-02-19T02:04:48.461Z,-3.6
2017-02-19T02:05:07.128Z,-3.6
2017-02-19T02:05:25.788Z,-3.5
2017-02-19T02:05:44.461Z,-3.5
2017-02-19T02:06:03.147Z,-3.5
2017-02-19T02:06:21.814Z,-3.5
2017-02-19T02:06:40.472Z,-3.5
2017-02-19T02:06:59.149Z,-3.5
2017-02-19T02:07:17.820Z,-3.5
2017-02-19T02:07:36.477Z,-3.5
2017-02-19T02:07:55.144Z,-3.5
2017-02-19T02:08:13.804Z,-3.5
2017-02-19T02:08:32.472Z,-3.5
2017-02-19T02:08:51.133Z,-3.5
2017-02-19T02:09:09.795Z,-3.5
2017-02-19T02:09:28.464Z,-3.5
2017-02-19T02:09:47.139Z,-3.5
2017-02-19T02:10:05.807Z,-3.5
2017-02-19T02:10:24.473Z,-3.5
2017-02-19T02:10:43.132Z,-3.5
2017-02-19T02:11:01.788Z,-3.5
2017-02-19T02:11:20.444Z,-3.5
2017-02-19T02:11:39.127Z,-3.5
2017-02-19T02:11:57.794Z,-3.5
2017-02-19T02:12:16.452Z,-3.5
2017-02-19T02:12:35.118Z,-3.5
2017-02-19T02:12:53.780Z,-3.5
2017-02-19T02:13:12.454Z,-3.6
2017-02-19T02:13:31.173Z,-3.6
2017-02-19T02:13:49.836Z,-3.6
2017-02-19T02:14:08.495Z,-3.6
2017-02-19T02:14:27.147Z,-3.6
2017-02-19T02:14:45.810Z,-3.6
2017-02-19T02:15:04.476Z,-3.6
2017-02-19T02:15:23.134Z,-3.5
2017-02-19T02:15:41.792Z,-3.5
2017-02-19T02:16:00.456Z,-3.5
2017-02-19T02:16:19.130Z,-3.6
2017-02-19T02:16:37.794Z,-3.5
2017-02-19T02:16:56.448Z,-3.5
2017-02-19T02:17:15.105Z,-3.5
2017-02-19T02:17:33.768Z,-3.5
2017-02-19T02:17:52.431Z,-3.5
2017-02-19T02:18:11.088Z,-3.5
2017-02-19T02:18:29.765Z,-3.5
2017-02-19T02:18:48.427Z,-3.5
2017-02-19T02:19:07.093Z,-3.5
2017-02-19T02:19:25.751Z,-3.5
2017-02-19T02:19:44.434Z,-3.5
2017-02-19T02:20:03.109Z,-3.6
2017-02-19T02:20:21.766Z,-3.6
2017-02-19T02:20:40.429Z,-3.6
2017-02-19T02:20:59.115Z,-3.6
2017-02-19T02:21:17.775Z,-3.6
2017-02-19T02:21:36.436Z,-3.6
2017-02-19T02:21:55.088Z,-3.6
2017-02-19T02:22:13.752Z,-3.6
2017-02-19T02:22:32.407Z,-3.6
2017-02-19T02:22:51.059Z,-3.6
2017-02-19T02:23:09.716Z,-3.6
2017-02-19T02:23:28.374Z,-3.6
2017-02-19T02:23:47.049Z,-3.6
2017-02-19T02:24:05.710Z,-3.6
2017-02-19T02:24:24.394Z,-3.6
2017-02-19T02:24:43.050Z,-3.6
2017-02-19T02:25:01.713Z,-3.5
2017-02-19T02:25:20.378Z,-3.5
2017-02-19T02:25:39.044Z,-3.6
2017-02-19T02:25:57.736Z,-3.6
2017-02-19T02:26:16.406Z,-3.5
2017-02-19T02:26:35.070Z,-3.6
2017-02-19T02:26:53.723Z,-3.6
2017-02-19T02:27:12.377Z,-3.5
2017-02-19T02:27:31.044Z,-3.4
2017-02-19T02:27:49.696Z,-3.4
2017-02-19T02:28:08.361Z,-3.3
2017-02-19T02:28:27.026Z,-3.3
2017-02-19T02:28:45.705Z,-3.3
2017-02-19T02:29:04.394Z,-3.3
2017-02-19T02:29:23.053Z,-3.3
2017-02-19T02:29:41.714Z,-3.3
2017-02-19T02:30:00.374Z,-3.3
2017-02-19T02:30:19.024Z,-3.3
2017-02-19T02:30:37.718Z,-3.3
2017-02-19T02:30:56.373Z,-3.3
2017-02-19T02:31:15.026Z,-3.1
2017-02-19T02:31:33.675Z,-3
2017-02-19T02:31:52.340Z,-3
2017-02-19T02:32:10.998Z,-2.9
2017-02-19T02:32:29.655Z,-2.9
2017-02-19T02:32:48.310Z,-2.8
2017-02-19T02:33:06.970Z,-2.8
2017-02-19T02:33:25.630Z,-2.8
2017-02-19T02:33:44.324Z,-2.9
2017-02-19T02:34:02.975Z,-2.9
2017-02-19T02:34:21.649Z,-2.9
2017-02-19T02:34:40.308Z,-2.9
2017-02-19T02:34:58.960Z,-2.9
2017-02-19T02:35:17.649Z,-2.9
2017-02-19T02:35:36.304Z,-2.9
2017-02-19T02:35:54.963Z,-3
2017-02-19T02:36:13.617Z,-3
2017-02-19T02:36:32.277Z,-3
2017-02-19T02:36:50.948Z,-3
2017-02-19T02:37:09.606Z,-3
2017-02-19T02:37:28.259Z,-3
2017-02-19T02:37:46.922Z,-3
2017-02-19T02:38:05.580Z,-3
2017-02-19T02:38:24.265Z,-3
2017-02-19T02:38:42.921Z,-3
2017-02-19T02:39:01.583Z,-2.9
2017-02-19T02:39:20.239Z,-2.9
2017-02-19T02:39:38.914Z,-2.9
2017-02-19T02:39:57.580Z,-2.9
2017-02-19T02:40:16.239Z,-2.8
2017-02-19T02:40:34.895Z,-2.7
2017-02-19T02:40:53.550Z,-2.6
2017-02-19T02:41:12.218Z,-2.5
2017-02-19T02:41:30.880Z,-2.4
2017-02-19T02:41:49.557Z,-2.4
2017-02-19T02:42:08.211Z,-2.3
2017-02-19T02:42:26.869Z,-2.3
2017-02-19T02:42:45.536Z,-2.3
2017-02-19T02:43:04.218Z,-2.3
2017-02-19T02:43:22.871Z,-2.3
2017-02-19T02:43:41.529Z,-2.3
2017-02-19T02:44:00.203Z,-2.3
2017-02-19T02:44:18.861Z,-2.3
2017-02-19T02:44:37.527Z,-2.3
2017-02-19T02:44:56.189Z,-2.3
2017-02-19T02:45:14.850Z,-2.2
2017-02-19T02:45:33.507Z,-2.2
2017-02-19T02:45:52.164Z,-2.1
2017-02-19T02:46:10.827Z,-2.1
2017-02-19T02:46:29.485Z,-2.1
2017-02-19T02:46:48.143Z,-2.1
2017-02-19T02:47:06.824Z,-2.1
2017-02-19T02:47:25.487Z,-2.1
2017-02-19T02:47:44.169Z,-2.1
2017-02-19T02:48:02.825Z,-2.1
2017-02-19T02:48:21.479Z,-2.1
2017-02-19T02:48:40.154Z,-2.1
2017-02-19T02:48:58.807Z,-2.1
2017-02-19T02:49:17.462Z,-2.1
2017-02-19T02:49:36.122Z,-2.1
2017-02-19T02:49:54.777Z,-2.1
2017-02-19T02:50:13.449Z,-2.1
2017-02-19T02:50:32.104Z,-2.2
2017-02-19T02:50:50.772Z,-2.2
2017-02-19T02:51:09.441Z,-2.2
2017-02-19T02:51:28.101Z,-2.3
2017-02-19T02:51:46.762Z,-2.3
2017-02-19T02:52:05.418Z,-2.3
2017-02-19T02:52:24.100Z,-2.4
2017-02-19T02:52:42.757Z,-2.4
2017-02-19T02:53:01.410Z,-2.4
2017-02-19T02:53:20.069Z,-2.4
2017-02-19T02:53:38.738Z,-2.4
2017-02-19T02:53:57.400Z,-2.5
2017-02-19T02:54:16.050Z,-2.5
2017-02-19T02:54:34.710Z,-2.6
2017-02-19T02:54:53.374Z,-2.6
2017-02-19T02:55:12.027Z,-2.7
2017-02-19T02:55:30.689Z,-2.7
2017-02-19T02:55:49.371Z,-2.7
2017-02-19T02:56:08.023Z,-2.7
2017-02-19T02:56:26.686Z,-2.8
2017-02-19T02:56:45.339Z,-2.8
2017-02-19T02:57:04.006Z,-2.8
2017-02-19T02:57:22.702Z,-2.8
2017-02-19T02:57:41.359Z,-2.9
2017-02-19T02:58:00.033Z,-2.9
2017-02-19T02:58:18.693Z,-2.9
2017-02-19T02:58:37.351Z,-2.9
2017-02-19T02:58:56.021Z,-2.9
2017-02-19T02:59:14.701Z,-2.9
2017-02-19T02:59:33.359Z,-3
2017-02-19T02:59:52.019Z,-3
2017-02-19T03:00:10.683Z,-3
2017-02-19T03:00:29.369Z,-3
2017-02-19T03:00:48.030Z,-3
2017-02-19T03:01:06.686Z,-3
2017-02-19T03:01:25.344Z,-3.1
2017-02-19T03:01:44.009Z,-3
2017-02-19T03:02:02.705Z,-3
2017-02-19T03:02:21.361Z,-3
2017-02-19T03:02:40.020Z,-3
2017-02-19T03:02:58.674Z,-3
2017-02-19T03:03:17.354Z,-3
2017-02-19T03:03:36.009Z,-3.1
2017-02-19T03:03:54.668Z,-3.1
2017-02-19T03:04:13.322Z,-3.1
2017-02-19T03:04:31.983Z,-3.1
2017-02-19T03:04:50.638Z,-3.1
2017-02-19T03:05:09.342Z,-3.1
2017-02-19T03:05:27.998Z,-3
2017-02-19T03:05:46.679Z,-3
2017-02-19T03:06:05.355Z,-3
2017-02-19T03:06:24.010Z,-3
2017-02-19T03:06:42.701Z,-3
2017-02-19T03:07:01.367Z,-2.9
2017-02-19T03:07:20.024Z,-2.9
2017-02-19T03:07:38.678Z,-2.8
2017-02-19T03:07:57.339Z,-2.8
2017-02-19T03:08:15.992Z,-2.8
2017-02-19T03:08:34.651Z,-2.8
2017-02-19T03:08:53.309Z,-2.7
2017-02-19T03:09:11.961Z,-2.7
2017-02-19T03:09:30.625Z,-2.7
2017-02-19T03:09:49.312Z,-2.7
2017-02-19T03:10:07.964Z,-2.7
2017-02-19T03:10:26.624Z,-2.7
2017-02-19T03:10:45.283Z,-2.7
2017-02-19T03:11:03.951Z,-2.6
2017-02-19T03:11:22.679Z,-2.6
2017-02-19T03:11:41.341Z,-2.6
2017-02-19T03:12:00.010Z,-2.6
2017-02-19T03:12:18.665Z,-2.6
2017-02-19T03:12:37.318Z,-2.6
2017-02-19T03:12:55.979Z,-2.6
2017-02-19T03:13:14.636Z,-2.6
2017-02-19T03:13:33.296Z,-2.6
2017-02-19T03:13:51.948Z,-2.6
2017-02-19T03:14:10.609Z,-2.6
2017-02-19T03:14:29.309Z,-2.6
2017-02-19T03:14:47.968Z,-2.6
2017-02-19T03:15:06.626Z,-2.6
2017-02-19T03:15:25.285Z,-2.6
2017-02-19T03:15:43.945Z,-2.6
2017-02-19T03:16:02.635Z,-2.5
2017-02-19T03:16:21.293Z,-2.5
2017-02-19T03:16:39.984Z,-2.5
2017-02-19T03:16:58.638Z,-2.4
2017-02-19T03:17:17.304Z,-2.4
2017-02-19T03:17:35.978Z,-2.4
2017-02-19T03:17:54.639Z,-2.4
2017-02-19T03:18:13.300Z,-2.4
2017-02-19T03:18:31.966Z,-2.4
2017-02-19T03:18:50.621Z,-2.4
2017-02-19T03:19:09.328Z,-2.4
2017-02-19T03:19:27.987Z,-2.4
2017-02-19T03:19:46.650Z,-2.4
2017-02-19T03:20:05.305Z,-2.4
2017-02-19T03:20:23.961Z,-2.4
2017-02-19T03:20:42.650Z,-2.4
2017-02-19T03:21:01.306Z,-2.4
2017-02-19T03:21:19.972Z,-2.3
2017-02-19T03:21:38.623Z,-2.2
2017-02-19T03:21:57.297Z,-2.2
2017-02-19T03:22:15.955Z,-2.2
2017-02-19T03:22:34.614Z,-2.2
2017-02-19T03:22:53.273Z,-2.2
2017-02-19T03:23:11.931Z,-2.2
2017-02-19T03:23:30.581Z,-2.2
2017-02-19T03:23:49.264Z,-2.2
2017-02-19T03:24:07.916Z,-2.2
2017-02-19T03:24:26.568Z,-2.2
2017-02-19T03:24:45.231Z,-2.3
2017-02-19T03:25:03.885Z,-2.3
2017-02-19T03:25:22.547Z,-2.3
2017-02-19T03:25:41.197Z,-2.3
2017-02-19T03:25:59.893Z,-2.4
2017-02-19T03:26:18.546Z,-2.4
2017-02-19T03:26:37.199Z,-2.4
2017-02-19T03:26:55.854Z,-2.5
2017-02-19T03:27:14.518Z,-2.5
2017-02-19T03:27:33.178Z,-2.6
2017-02-19T03:27:51.838Z,-2.6
2017-02-19T03:28:10.491Z,-2.6
2017-02-19T03:28:29.184Z,-2.7
2017-02-19T03:28:47.845Z,-2.7
2017-02-19T03:29:06.508Z,-2.7
2017-02-19T03:29:25.160Z,-2.7
2017-02-19T03:29:43.821Z,-2.7
2017-02-19T03:30:02.481Z,-2.7
2017-02-19T03:30:21.143Z,-2.7
2017-02-19T03:30:39.808Z,-2.7
2017-02-19T03:30:58.464Z,-2.7
2017-02-19T03:31:17.121Z,-2.7
2017-02-19T03:31:35.781Z,-2.7
2017-02-19T03:31:54.455Z,-2.6
2017-02-19T03:32:13.112Z,-2.7
2017-02-19T03:32:31.789Z,-2.7
2017-02-19T03:32:50.458Z,-2.7
2017-02-19T03:33:09.128Z,-2.7
2017-02-19T03:33:27.787Z,-2.7
2017-02-19T03:33:46.452Z,-2.7
2017-02-19T03:34:05.115Z,-2.7
2017-02-19T03:34:23.778Z,-2.7
2017-02-19T03:34:42.442Z,-2.8
2017-02-19T03:35:01.106Z,-2.7
2017-02-19T03:35:19.778Z,-2.8
2017-02-19T03:35:38.425Z,-2.8
2017-02-19T03:35:57.079Z,-2.8
2017-02-19T03:36:15.743Z,-2.8
2017-02-19T03:36:34.423Z,-2.8
2017-02-19T03:36:53.074Z,-2.8
2017-02-19T03:37:11.734Z,-2.8
2017-02-19T03:37:30.395Z,-2.8
2017-02-19T03:37:49.080Z,-2.7
2017-02-19T03:38:07.745Z,-2.7
2017-02-19T03:38:26.413Z,-2.6
2017-02-19T03:38:45.072Z,-2.6
2017-02-19T03:39:03.728Z,-2.6
2017-02-19T03:39:22.381Z,-2.6
2017-02-19T03:39:41.057Z,-2.6
2017-02-19T03:39:59.725Z,-2.5
2017-02-19T03:40:18.394Z,-2.6
2017-02-19T03:40:37.045Z,-2.5
2017-02-19T03:40:55.711Z,-2.5
2017-02-19T03:41:14.403Z,-2.5
2017-02-19T03:41:33.068Z,-2.5
2017-02-19T03:41:51.731Z,-2.5
2017-02-19T03:42:10.393Z,-2.5
2017-02-19T03:42:29.068Z,-2.5
2017-02-19T03:42:47.741Z,-2.6
2017-02-19T03:43:06.409Z,-2.6
2017-02-19T03:43:25.066Z,-2.6
2017-02-19T03:43:43.717Z,-2.6
2017-02-19T03:44:02.368Z,-2.7
2017-02-19T03:44:21.030Z,-2.7
2017-02-19T03:44:39.700Z,-2.7
2017-02-19T03:44:58.375Z,-2.8
2017-02-19T03:45:17.033Z,-2.8
2017-02-19T03:45:35.696Z,-2.8
2017-02-19T03:45:54.381Z,-2.8
2017-02-19T03:46:13.055Z,-2.8
2017-02-19T03:46:31.729Z,-2.8
2017-02-19T03:46:50.386Z,-2.8
2017-02-19T03:47:09.058Z,-2.9
2017-02-19T03:47:27.744Z,-2.9
2017-02-19T03:47:46.411Z,-2.9
2017-02-19T03:48:05.077Z,-2.9
2017-02-19T03:48:23.743Z,-2.9
2017-02-19T03:48:42.406Z,-3
2017-02-19T03:49:01.072Z,-3
2017-02-19T03:49:19.727Z,-3
2017-02-19T03:49:38.383Z,-3
2017-02-19T03:49:57.053Z,-3
2017-02-19T03:50:15.726Z,-3
2017-02-19T03:50:34.416Z,-3
2017-02-19T03:50:53.079Z,-3
2017-02-19T03:51:11.735Z,-3
2017-02-19T03:51:30.396Z,-3
2017-02-19T03:51:49.077Z,-3.1
2017-02-19T03:52:07.746Z,-3
2017-02-19T03:52:26.400Z,-3
2017-02-19T03:52:45.054Z,-3
2017-02-19T03:53:03.707Z,-3
2017-02-19T03:53:22.370Z,-3
2017-02-19T03:53:41.035Z,-3
2017-02-19T03:53:59.693Z,-3
2017-02-19T03:54:18.352Z,-3
2017-02-19T03:54:37.008Z,-3
2017-02-19T03:54:55.659Z,-3
2017-02-19T03:55:14.344Z,-3
2017-02-19T03:55:33.003Z,-3
2017-02-19T03:55:51.665Z,-3
2017-02-19T03:56:10.326Z,-3
2017-02-19T03:56:28.983Z,-3
2017-02-19T03:56:47.682Z,-3
2017-02-19T03:57:06.340Z,-3
2017-02-19T03:57:24.993Z,-3
2017-02-19T03:57:43.651Z,-3
2017-02-19T03:58:02.315Z,-3
2017-02-19T03:58:20.975Z,-2.9
2017-02-19T03:58:39.632Z,-2.9
2017-02-19T03:58:58.323Z,-2.9
2017-02-19T03:59:16.983Z,-2.9
2017-02-19T03:59:35.639Z,-2.8
2017-02-19T03:59:54.318Z,-2.8
2017-02-19T04:00:12.988Z,-2.8
2017-02-19T04:00:31.642Z,-2.8
2017-02-19T04:00:50.295Z,-2.8
2017-02-19T04:01:08.954Z,-2.8
2017-02-19T04:01:27.642Z,-2.8
2017-02-19T04:01:46.302Z,-2.8
2017-02-19T04:02:04.959Z,-2.8
2017-02-19T04:02:23.612Z,-2.8
2017-02-19T04:02:42.271Z,-2.8
2017-02-19T04:03:00.933Z,-2.8
2017-02-19T04:03:19.590Z,-2.8
2017-02-19T04:03:38.245Z,-2.8
2017-02-19T04:03:56.901Z,-2.8
2017-02-19T04:04:15.590Z,-2.8
2017-02-19T04:04:34.289Z,-2.9
2017-02-19T04:04:52.949Z,-2.9
2017-02-19T04:05:11.605Z,-2.9
2017-02-19T04:05:30.274Z,-2.9
2017-02-19T04:05:48.928Z,-2.9
2017-02-19T04:06:07.588Z,-2.9
2017-02-19T04:06:26.245Z,-2.9
2017-02-19T04:06:44.902Z,-2.9
2017-02-19T04:07:03.558Z,-2.9
2017-02-19T04:07:22.216Z,-2.9
2017-02-19T04:07:40.879Z,-2.9
2017-02-19T04:07:59.537Z,-2.9
2017-02-19T04:08:18.198Z,-2.9
2017-02-19T04:08:36.860Z,-2.9
2017-02-19T04:08:55.523Z,-2.9
2017-02-19T04:09:14.202Z,-2.9
2017-02-19T04:09:32.860Z,-2.9